createdAt,value
2018-09-19T00:01:51.923Z,6.23
2018-09-19T00:04:20.305Z,5.83
2018-09-19T00:06:48.409Z,7.07
2018-09-19T00:09:16.502Z,6.20
2018-09-19T00:11:44.620Z,5.87
2018-09-19T00:14:12.742Z,6.83
2018-09-19T00:16:40.883Z,6.00
2018-09-19T00:19:09.074Z,5.40
2018-09-19T00:21:37.270Z,5.67
2018-09-19T00:24:05.334Z,6.23
2018-09-19T00:26:33.397Z,5.40
2018-09-19T00:29:01.533Z,5.87
2018-09-19T00:31:29.572Z,5.57
2018-09-19T00:33:57.705Z,5.30
2018-09-19T00:36:25.953Z,6.30
2018-09-19T00:38:54.222Z,5.90
2018-09-19T00:41:22.369Z,6.17
2018-09-19T00:43:50.542Z,5.80
2018-09-19T00:46:18.695Z,5.93
2018-09-19T00:48:46.910Z,5.73
2018-09-19T00:51:15.126Z,5.27
2018-09-19T00:53:43.708Z,5.60
2018-09-19T00:56:11.889Z,5.60
2018-09-19T00:58:39.974Z,5.77
2018-09-19T01:01:08.096Z,5.80
2018-09-19T01:03:36.308Z,5.40
2018-09-19T01:06:04.456Z,5.90
2018-09-19T01:08:32.649Z,5.87
2018-09-19T01:11:00.786Z,6.03
2018-09-19T01:13:28.896Z,5.60
2018-09-19T01:15:56.896Z,5.70
2018-09-19T01:18:25.181Z,6.20
2018-09-19T01:20:53.246Z,5.90
2018-09-19T01:23:21.381Z,5.20
2018-09-19T01:25:49.552Z,5.07
2018-09-19T01:28:17.752Z,5.63
2018-09-19T01:30:45.809Z,6.00
2018-09-19T01:33:13.954Z,6.00
2018-09-19T01:35:42.018Z,7.13
2018-09-19T01:38:10.161Z,6.50
2018-09-19T01:40:38.225Z,6.47
2018-09-19T01:43:06.489Z,6.77
2018-09-19T01:45:34.839Z,6.30
2018-09-19T01:48:02.992Z,6.70
2018-09-19T01:50:31.191Z,6.87
2018-09-19T01:52:59.454Z,6.83
2018-09-19T01:55:27.647Z,6.20
2018-09-19T01:57:55.811Z,6.40
2018-09-19T02:00:23.901Z,6.23
2018-09-19T02:02:52.452Z,5.73
2018-09-19T02:05:20.552Z,6.50
2018-09-19T02:07:48.809Z,6.70
2018-09-19T02:10:17.019Z,7.03
2018-09-19T02:12:45.133Z,6.53
2018-09-19T02:15:13.233Z,6.67
2018-09-19T02:17:41.424Z,6.60
2018-09-19T02:20:09.519Z,7.20
2018-09-19T02:22:37.676Z,7.23
2018-09-19T02:25:05.831Z,6.17
2018-09-19T02:27:43.398Z,7.33
2018-09-19T02:30:11.496Z,6.90
2018-09-19T02:32:39.566Z,6.73
2018-09-19T02:35:07.726Z,7.17
2018-09-19T02:37:36.120Z,6.43
2018-09-19T02:40:04.841Z,7.20
2018-09-19T02:42:33.241Z,6.03
2018-09-19T02:45:01.391Z,6.90
2018-09-19T02:47:29.483Z,6.87
2018-09-19T02:49:57.720Z,6.50
2018-09-19T02:52:25.930Z,6.93
2018-09-19T02:54:54.114Z,7.07
2018-09-19T02:57:22.173Z,7.07
2018-09-19T02:59:50.399Z,6.63
2018-09-19T03:02:18.664Z,7.00
2018-09-19T03:04:47.516Z,6.73
2018-09-19T03:07:15.744Z,6.33
2018-09-19T03:09:43.921Z,6.57
2018-09-19T03:12:12.133Z,6.33
2018-09-19T03:14:40.184Z,6.43
2018-09-19T03:17:08.475Z,6.47
2018-09-19T03:19:36.621Z,6.37
2018-09-19T03:22:04.845Z,6.90
2018-09-19T03:24:33.151Z,7.20
2018-09-19T03:27:01.417Z,6.97
2018-09-19T03:29:29.605Z,6.63
2018-09-19T03:31:57.888Z,6.27
2018-09-19T03:34:26.007Z,7.33
2018-09-19T03:36:54.127Z,6.47
2018-09-19T03:39:22.166Z,6.77
2018-09-19T03:41:50.258Z,6.73
2018-09-19T03:44:18.426Z,7.00
2018-09-19T03:46:46.666Z,7.20
2018-09-19T03:49:14.744Z,7.13
2018-09-19T03:51:42.822Z,7.13
2018-09-19T03:54:11.725Z,7.17
2018-09-19T03:56:39.845Z,6.70
2018-09-19T03:59:08.390Z,6.67
2018-09-19T04:01:36.511Z,7.07
2018-09-19T04:04:04.773Z,7.03
2018-09-19T04:06:33.035Z,7.10
2018-09-19T04:09:01.158Z,7.33
2018-09-19T04:11:29.402Z,7.00
2018-09-19T04:13:57.530Z,7.20
2018-09-19T04:16:25.755Z,6.87
2018-09-19T04:18:53.847Z,6.77
2018-09-19T04:21:22.007Z,7.10
2018-09-19T04:23:50.153Z,7.30
2018-09-19T04:26:18.338Z,7.10
2018-09-19T04:28:46.498Z,7.77
2018-09-19T04:31:14.551Z,7.33
2018-09-19T04:33:42.941Z,6.43
2018-09-19T04:36:11.090Z,7.90
2018-09-19T04:38:39.910Z,6.90
2018-09-19T04:41:08.718Z,7.33
2018-09-19T04:43:37.492Z,6.83
2018-09-19T04:46:05.755Z,7.47
2018-09-19T04:48:33.882Z,9.40
2018-09-19T04:51:02.013Z,7.13
2018-09-19T04:53:30.199Z,7.00
2018-09-19T04:55:58.798Z,6.93
2018-09-19T04:58:26.972Z,7.27
2018-09-19T05:00:55.133Z,7.60
2018-09-19T05:03:23.888Z,7.37
2018-09-19T05:05:52.008Z,7.87
2018-09-19T05:08:20.115Z,6.87
2018-09-19T05:10:48.297Z,7.03
2018-09-19T05:13:16.465Z,6.37
2018-09-19T05:15:44.620Z,6.97
2018-09-19T05:18:12.783Z,7.23
2018-09-19T05:20:40.899Z,7.50
2018-09-19T05:23:09.111Z,6.97
2018-09-19T05:25:37.318Z,7.60
2018-09-19T05:28:05.415Z,7.50
2018-09-19T05:30:33.561Z,7.90
2018-09-19T05:33:01.714Z,7.77
2018-09-19T05:35:29.806Z,8.60
2018-09-19T05:37:57.935Z,8.60
2018-09-19T05:40:26.017Z,8.57
2018-09-19T05:42:54.125Z,8.13
2018-09-19T05:45:22.233Z,8.87
2018-09-19T05:47:50.311Z,10.87
2018-09-19T05:50:18.963Z,10.70
2018-09-19T05:52:47.077Z,9.57
2018-09-19T05:55:15.524Z,10.17
2018-09-19T05:57:43.979Z,9.50
2018-09-19T06:00:12.211Z,9.27
2018-09-19T06:02:40.324Z,9.33
2018-09-19T06:05:08.666Z,8.67
2018-09-19T06:07:36.687Z,9.30
2018-09-19T06:10:05.148Z,8.90
2018-09-19T06:12:33.304Z,9.00
2018-09-19T06:15:01.465Z,9.13
2018-09-19T06:17:29.744Z,11.97
2018-09-19T06:19:57.931Z,11.77
2018-09-19T06:22:26.025Z,9.53
2018-09-19T06:24:54.180Z,8.67
2018-09-19T06:27:22.453Z,6.83
2018-09-19T06:29:50.696Z,6.67
2018-09-19T06:32:18.862Z,7.20
2018-09-19T06:34:46.971Z,7.33
2018-09-19T06:37:15.141Z,7.73
2018-09-19T06:39:43.278Z,7.23
2018-09-19T06:42:11.466Z,7.47
2018-09-19T06:44:39.575Z,7.30
2018-09-19T06:47:07.832Z,8.23
2018-09-19T06:49:36.015Z,7.63
2018-09-19T06:52:04.297Z,7.97
2018-09-19T06:54:32.446Z,7.60
2018-09-19T06:57:00.647Z,7.97
2018-09-19T06:59:28.742Z,8.03
2018-09-19T07:01:57.295Z,6.47
2018-09-19T07:04:25.480Z,7.27
2018-09-19T07:06:53.612Z,7.70
2018-09-19T07:09:21.682Z,7.43
2018-09-19T07:11:49.858Z,7.47
2018-09-19T07:14:18.140Z,7.17
2018-09-19T07:16:46.241Z,7.00
2018-09-19T07:19:14.446Z,8.77
2018-09-19T07:21:42.589Z,8.37
2018-09-19T07:24:10.683Z,8.20
2018-09-19T07:26:38.823Z,8.30
2018-09-19T07:29:07.015Z,7.87
2018-09-19T07:31:35.267Z,8.00
2018-09-19T07:34:03.430Z,8.63
2018-09-19T07:36:31.601Z,8.37
2018-09-19T07:38:59.685Z,9.10
2018-09-19T07:41:27.815Z,8.70
2018-09-19T07:43:56.198Z,8.30
2018-09-19T07:46:24.352Z,8.17
2018-09-19T07:48:52.432Z,8.27
2018-09-19T07:51:21.242Z,7.13
2018-09-19T07:53:49.404Z,7.10
2018-09-19T07:56:17.649Z,8.87
2018-09-19T07:58:45.854Z,8.80
2018-09-19T08:01:14.137Z,8.58
2018-09-19T08:03:42.342Z,8.25
2018-09-19T08:06:10.499Z,7.72
2018-09-19T08:08:48.305Z,7.42
2018-09-19T08:11:16.467Z,6.97
2018-09-19T08:13:44.705Z,7.45
2018-09-19T08:16:12.853Z,7.12
2018-09-19T08:18:41.459Z,6.50
2018-09-19T08:21:09.662Z,6.90
2018-09-19T08:23:37.724Z,7.87
2018-09-19T08:26:05.899Z,6.47
2018-09-19T08:28:34.149Z,6.33
2018-09-19T08:31:02.313Z,6.42
2018-09-19T08:33:30.429Z,6.47
2018-09-19T08:35:58.593Z,6.55
2018-09-19T08:38:26.672Z,6.75
2018-09-19T08:40:54.764Z,7.28
2018-09-19T08:43:22.866Z,6.35
2018-09-19T08:45:51.136Z,6.17
2018-09-19T08:48:19.218Z,6.78
2018-09-19T08:50:47.452Z,6.60
2018-09-19T08:53:15.645Z,6.40
2018-09-19T08:55:43.854Z,6.90
2018-09-19T08:58:21.465Z,6.22
2018-09-19T09:00:49.588Z,6.60
2018-09-19T09:03:17.745Z,6.22
2018-09-19T09:05:46.020Z,5.97
2018-09-19T09:08:14.138Z,6.40
2018-09-19T09:10:42.252Z,5.58
2018-09-19T09:13:10.484Z,5.80
2018-09-19T09:15:38.634Z,5.60
2018-09-19T09:18:07.656Z,5.45
2018-09-19T09:20:35.922Z,5.65
2018-09-19T09:23:04.081Z,5.33
2018-09-19T09:25:32.327Z,4.28
2018-09-19T09:28:00.471Z,6.58
2018-09-19T09:30:28.652Z,4.50
2018-09-19T09:32:56.846Z,4.85
2018-09-19T09:35:24.877Z,4.87
2018-09-19T09:37:52.994Z,6.25
2018-09-19T09:40:21.117Z,4.67
2018-09-19T09:42:49.305Z,4.93
2018-09-19T09:45:17.574Z,4.90
2018-09-19T09:47:45.807Z,4.57
2018-09-19T09:50:14.108Z,4.27
2018-09-19T09:52:42.326Z,5.13
2018-09-19T09:55:10.531Z,4.43
2018-09-19T09:57:38.756Z,4.10
2018-09-19T10:00:07.040Z,4.63
2018-09-19T10:02:35.253Z,4.50
2018-09-19T10:05:03.604Z,4.80
2018-09-19T10:07:31.834Z,4.53
2018-09-19T10:10:00.009Z,4.40
2018-09-19T10:12:28.177Z,4.10
2018-09-19T10:14:56.365Z,4.30
2018-09-19T10:17:24.597Z,4.40
2018-09-19T10:19:52.812Z,4.07
2018-09-19T10:22:20.973Z,4.53
2018-09-19T10:24:49.094Z,4.67
2018-09-19T10:27:17.327Z,4.08
2018-09-19T10:29:45.639Z,4.28
2018-09-19T10:32:13.733Z,4.28
2018-09-19T10:34:41.863Z,4.58
2018-09-19T10:37:09.940Z,3.87
2018-09-19T10:39:38.120Z,4.20
2018-09-19T10:42:06.284Z,4.05
2018-09-19T10:44:34.504Z,3.90
2018-09-19T10:47:02.617Z,4.00
2018-09-19T10:49:30.811Z,3.90
2018-09-19T10:51:59.037Z,4.28
2018-09-19T10:54:27.129Z,3.50
2018-09-19T10:56:55.248Z,3.83
2018-09-19T10:59:23.404Z,3.40
2018-09-19T11:01:51.539Z,3.55
2018-09-19T11:04:19.646Z,3.45
2018-09-19T11:06:48.519Z,3.20
2018-09-19T11:09:16.640Z,4.55
2018-09-19T11:11:44.753Z,4.42
2018-09-19T11:14:12.896Z,3.80
2018-09-19T11:16:41.001Z,3.52
2018-09-19T11:19:09.082Z,3.08
2018-09-19T11:21:37.253Z,3.45
2018-09-19T11:24:05.726Z,2.90
2018-09-19T11:26:33.901Z,2.98
2018-09-19T11:29:02.072Z,3.58
2018-09-19T11:31:30.243Z,3.20
2018-09-19T11:33:58.400Z,3.85
2018-09-19T11:36:26.632Z,3.92
2018-09-19T11:38:54.889Z,4.03
2018-09-19T11:41:23.189Z,4.45
2018-09-19T11:43:51.424Z,4.00
2018-09-19T11:46:19.617Z,4.03
2018-09-19T11:48:48.248Z,4.20
2018-09-19T11:51:16.451Z,4.10
2018-09-19T11:53:44.536Z,4.20
2018-09-19T11:56:12.570Z,3.40
2018-09-19T11:58:40.807Z,3.20
2018-09-19T12:01:09.149Z,4.00
2018-09-19T12:03:37.288Z,5.45
2018-09-19T12:06:05.527Z,4.65
2018-09-19T12:08:33.685Z,3.65
2018-09-19T12:11:01.809Z,3.40
2018-09-19T12:13:29.880Z,3.90
2018-09-19T12:15:58.028Z,3.25
2018-09-19T12:18:26.201Z,3.37
2018-09-19T12:20:54.387Z,4.03
2018-09-19T12:23:22.614Z,3.65
2018-09-19T12:25:50.730Z,3.10
2018-09-19T12:28:18.889Z,3.90
2018-09-19T12:30:47.014Z,3.60
2018-09-19T12:33:15.121Z,3.60
2018-09-19T12:35:43.178Z,3.45
2018-09-19T12:38:11.482Z,3.92
2018-09-19T12:40:39.569Z,2.95
2018-09-19T12:43:07.700Z,3.12
2018-09-19T12:45:35.854Z,3.62
2018-09-19T12:48:04.030Z,3.20
2018-09-19T12:50:32.213Z,2.70
2018-09-19T12:53:00.450Z,2.70
2018-09-19T12:55:28.847Z,3.17
2018-09-19T12:57:57.032Z,2.83
2018-09-19T13:00:25.261Z,2.70
2018-09-19T13:02:53.493Z,2.87
2018-09-19T13:05:21.644Z,3.20
2018-09-19T13:07:49.745Z,2.85
2018-09-19T13:10:17.837Z,3.10
2018-09-19T13:12:45.902Z,2.70
2018-09-19T13:15:14.070Z,2.60
2018-09-19T13:17:42.271Z,3.47
2018-09-19T13:20:10.414Z,4.53
2018-09-19T13:22:38.632Z,5.15
2018-09-19T13:25:06.915Z,3.75
2018-09-19T13:27:35.160Z,3.08
2018-09-19T13:30:03.514Z,2.98
2018-09-19T13:32:31.632Z,2.67
2018-09-19T13:34:59.846Z,2.50
2018-09-19T13:37:27.980Z,3.15
2018-09-19T13:39:56.125Z,3.15
2018-09-19T13:42:24.330Z,3.25
2018-09-19T13:44:52.896Z,2.83
2018-09-19T13:47:21.060Z,3.30
2018-09-19T13:51:05.428Z,3.58
2018-09-19T13:53:33.631Z,4.30
2018-09-19T13:56:01.804Z,3.98
2018-09-19T13:58:30.048Z,2.80
2018-09-19T14:00:58.212Z,3.05
2018-09-19T14:03:26.377Z,3.15
2018-09-19T14:05:54.551Z,3.10
2018-09-19T14:08:23.036Z,3.20
2018-09-19T14:10:51.241Z,2.98
2018-09-19T14:13:19.424Z,3.02
2018-09-19T14:15:47.684Z,2.92
2018-09-19T14:18:15.934Z,2.85
2018-09-19T14:20:44.281Z,2.92
2018-09-19T14:23:12.416Z,2.90
2018-09-19T14:25:40.525Z,2.90
2018-09-19T14:28:08.731Z,3.00
2018-09-19T14:30:37.257Z,2.80
2018-09-19T14:33:05.448Z,2.75
2018-09-19T14:35:33.644Z,2.80
2018-09-19T14:38:02.473Z,2.85
2018-09-19T14:40:30.837Z,3.20
2018-09-19T14:42:59.041Z,2.70
2018-09-19T14:45:27.359Z,2.90
2018-09-19T14:47:55.634Z,3.00
2018-09-19T14:50:23.817Z,3.22
2018-09-19T14:52:52.009Z,2.85
2018-09-19T14:55:20.354Z,3.17
2018-09-19T14:57:48.511Z,2.90
2018-09-19T15:00:16.799Z,2.92
2018-09-19T15:02:44.955Z,2.95
2018-09-19T15:05:13.247Z,2.77
2018-09-19T15:07:41.438Z,2.65
2018-09-19T15:10:09.697Z,2.92
2018-09-19T15:12:37.833Z,2.62
2018-09-19T15:15:06.035Z,2.87
2018-09-19T15:17:34.275Z,3.20
2018-09-19T15:20:02.961Z,2.87
2018-09-19T15:22:31.160Z,2.60
2018-09-19T15:24:59.342Z,2.85
2018-09-19T15:27:27.572Z,2.70
2018-09-19T15:29:55.758Z,2.70
2018-09-19T15:32:24.110Z,3.10
2018-09-19T15:34:52.274Z,3.00
2018-09-19T15:37:20.388Z,3.00
2018-09-19T15:39:48.568Z,2.80
2018-09-19T15:42:17.560Z,2.60
2018-09-19T15:44:45.739Z,2.55
2018-09-19T15:47:13.983Z,3.00
2018-09-19T15:49:42.161Z,2.90
2018-09-19T15:52:11.321Z,2.77
2018-09-19T15:54:39.335Z,3.02
2018-09-19T15:57:07.539Z,2.40
2018-09-19T15:59:35.609Z,3.00
2018-09-19T16:02:03.901Z,2.70
2018-09-19T16:04:32.094Z,3.02
2018-09-19T16:07:00.297Z,2.80
2018-09-19T16:09:28.447Z,2.70
2018-09-19T16:11:56.616Z,3.12
2018-09-19T16:14:24.731Z,2.95
2018-09-19T16:16:52.926Z,2.72
2018-09-19T16:19:21.338Z,3.20
2018-09-19T16:21:49.427Z,2.80
2018-09-19T16:24:17.590Z,2.83
2018-09-19T16:26:45.809Z,2.50
2018-09-19T16:29:13.925Z,2.80
2018-09-19T16:31:42.147Z,2.87
2018-09-19T16:34:10.982Z,2.90
2018-09-19T16:36:39.374Z,3.00
2018-09-19T16:39:10.717Z,3.57
2018-09-19T16:41:38.929Z,3.00
2018-09-19T16:44:07.393Z,2.73
2018-09-19T16:46:36.301Z,2.70
2018-09-19T16:49:05.066Z,2.70
2018-09-19T16:51:33.294Z,2.83
2018-09-19T16:54:01.486Z,3.43
2018-09-19T16:56:29.918Z,2.80
2018-09-19T16:58:58.413Z,2.93
2018-09-19T17:01:28.130Z,3.33
2018-09-19T17:03:56.720Z,3.00
2018-09-19T17:06:24.870Z,4.00
2018-09-19T17:08:53.573Z,3.83
2018-09-19T17:11:22.035Z,3.07
2018-09-19T17:13:50.257Z,5.17
2018-09-19T17:16:18.507Z,4.00
2018-09-19T17:18:47.393Z,4.83
2018-09-19T17:21:16.277Z,4.17
2018-09-19T17:23:44.458Z,3.97
2018-09-19T17:26:12.825Z,3.33
2018-09-19T17:28:42.634Z,3.47
2018-09-19T17:31:10.704Z,3.17
2018-09-19T17:33:38.841Z,3.63
2018-09-19T17:36:06.982Z,3.27
2018-09-19T17:38:49.238Z,4.53
2018-09-19T17:41:17.302Z,4.00
2018-09-19T17:43:45.619Z,4.37
2018-09-19T17:46:14.505Z,3.37
2018-09-19T17:48:42.661Z,4.07
2018-09-19T17:51:10.881Z,3.30
2018-09-19T17:53:39.157Z,3.70
2018-09-19T17:56:07.474Z,3.93
2018-09-19T17:58:35.647Z,3.70
2018-09-19T18:01:03.763Z,3.97
2018-09-19T18:03:31.875Z,3.73
2018-09-19T18:06:00.083Z,2.90
2018-09-19T18:08:42.664Z,3.77
2018-09-19T18:11:11.245Z,3.60
2018-09-19T18:13:39.468Z,4.00
2018-09-19T18:16:07.543Z,3.80
2018-09-19T18:18:36.750Z,3.57
2018-09-19T18:21:05.510Z,3.80
2018-09-19T18:23:33.704Z,3.70
2018-09-19T18:26:01.892Z,3.77
2018-09-19T18:28:30.886Z,3.90
2018-09-19T18:30:59.027Z,3.80
2018-09-19T18:33:27.249Z,3.70
2018-09-19T18:35:55.579Z,3.90
2018-09-19T18:38:23.757Z,3.37
2018-09-19T18:40:52.060Z,3.57
2018-09-19T18:43:20.221Z,3.53
2018-09-19T18:45:48.466Z,3.40
2018-09-19T18:48:16.624Z,3.53
2018-09-19T18:50:44.776Z,3.70
2018-09-19T18:53:12.948Z,3.50
2018-09-19T18:55:41.226Z,3.67
2018-09-19T18:58:09.652Z,3.60
2018-09-19T19:00:37.821Z,3.83
2018-09-19T19:03:06.484Z,3.30
2018-09-19T19:05:34.668Z,3.20
2018-09-19T19:08:02.969Z,3.20
2018-09-19T19:10:31.076Z,3.47
2018-09-19T19:12:59.256Z,3.37
2018-09-19T19:15:27.501Z,3.27
2018-09-19T19:17:55.730Z,3.30
2018-09-19T19:20:23.993Z,4.30
2018-09-19T19:22:52.244Z,3.53
2018-09-19T19:25:20.494Z,4.30
2018-09-19T19:27:48.692Z,3.63
2018-09-19T19:30:17.088Z,3.30
2018-09-19T19:32:45.693Z,3.27
2018-09-19T19:35:13.823Z,3.30
2018-09-19T19:37:42.682Z,3.57
2018-09-19T19:40:10.808Z,3.43
2018-09-19T19:42:39.044Z,3.50
2018-09-19T19:45:07.314Z,3.57
2018-09-19T19:47:35.712Z,3.93
2018-09-19T19:50:04.281Z,3.83
2018-09-19T19:52:32.490Z,3.80
2018-09-19T19:55:01.270Z,4.27
2018-09-19T19:57:29.509Z,3.80
2018-09-19T19:59:57.692Z,3.50
2018-09-19T20:02:25.994Z,3.50
2018-09-19T20:04:54.275Z,4.10
2018-09-19T20:07:23.058Z,3.30
2018-09-19T20:09:51.389Z,3.47
2018-09-19T20:12:19.830Z,3.97
2018-09-19T20:14:48.047Z,3.63
2018-09-19T20:17:16.244Z,3.50
2018-09-19T20:19:45.214Z,3.57
2018-09-19T20:22:13.383Z,3.60
2018-09-19T20:24:41.587Z,3.63
2018-09-19T20:27:09.898Z,3.33
2018-09-19T20:29:38.182Z,3.50
2018-09-19T20:32:06.275Z,3.80
2018-09-19T20:34:34.413Z,3.77
2018-09-19T20:37:02.532Z,3.67
2018-09-19T20:39:30.832Z,3.83
2018-09-19T20:41:59.675Z,3.60
2018-09-19T20:44:28.619Z,3.90
2018-09-19T20:46:56.774Z,3.73
2018-09-19T20:49:24.961Z,4.20
2018-09-19T20:51:53.846Z,3.73
2018-09-19T20:54:21.973Z,4.00
2018-09-19T20:56:50.269Z,4.13
2018-09-19T20:59:18.522Z,4.00
2018-09-19T21:01:46.985Z,3.70
2018-09-19T21:04:15.192Z,3.90
2018-09-19T21:06:43.299Z,3.53
2018-09-19T21:09:11.454Z,4.10
2018-09-19T21:11:39.698Z,4.00
2018-09-19T21:14:07.889Z,3.83
2018-09-19T21:16:36.050Z,4.37
2018-09-19T21:19:04.314Z,4.07
2018-09-19T21:21:32.753Z,4.10
2018-09-19T21:24:01.061Z,4.63
2018-09-19T21:26:29.237Z,4.60
2018-09-19T21:28:57.525Z,4.00
2018-09-19T21:31:25.818Z,4.30
2018-09-19T21:33:54.095Z,3.87
2018-09-19T21:36:22.724Z,4.07
2018-09-19T21:38:50.850Z,4.20
2018-09-19T21:41:19.693Z,3.80
2018-09-19T21:43:47.853Z,4.37
2018-09-19T21:46:16.814Z,4.23
2018-09-19T21:48:45.005Z,3.80
2018-09-19T21:51:13.228Z,4.23
2018-09-19T21:53:41.396Z,4.37
2018-09-19T21:56:09.452Z,4.20
2018-09-19T21:58:37.627Z,3.93
2018-09-19T22:01:08.350Z,4.97
2018-09-19T22:03:37.837Z,4.17
2018-09-19T22:06:06.834Z,4.40
2018-09-19T22:08:35.428Z,4.40
2018-09-19T22:11:04.620Z,4.20
2018-09-19T22:13:32.718Z,4.40
2018-09-19T22:16:00.887Z,4.27
2018-09-19T22:18:28.993Z,4.10
2018-09-19T22:20:57.140Z,4.37
2018-09-19T22:23:25.276Z,4.33
2018-09-19T22:25:53.371Z,4.20
2018-09-19T22:28:21.446Z,4.20
2018-09-19T22:30:49.592Z,4.83
2018-09-19T22:33:17.696Z,4.40
2018-09-19T22:35:45.867Z,4.23
2018-09-19T22:38:14.034Z,4.43
2018-09-19T22:40:42.131Z,4.33
2018-09-19T22:43:10.269Z,4.00
2018-09-19T22:45:38.413Z,3.87
2018-09-19T22:48:06.650Z,4.40
2018-09-19T22:50:34.869Z,4.10
2018-09-19T22:53:03.032Z,4.50
2018-09-19T22:55:31.220Z,4.30
2018-09-19T22:57:59.917Z,4.10
2018-09-19T23:00:28.138Z,3.97
2018-09-19T23:02:56.293Z,4.40
2018-09-19T23:05:24.589Z,5.03
2018-09-19T23:07:52.742Z,4.50
2018-09-19T23:10:20.874Z,5.07
2018-09-19T23:12:49.173Z,4.37
2018-09-19T23:15:17.358Z,4.30
2018-09-19T23:17:45.451Z,4.17
2018-09-19T23:20:13.506Z,4.20
2018-09-19T23:22:41.689Z,4.60
2018-09-19T23:25:09.810Z,3.93
2018-09-19T23:27:37.838Z,4.40
2018-09-19T23:30:05.989Z,4.27
2018-09-19T23:32:34.100Z,4.47
2018-09-19T23:35:02.251Z,4.30
2018-09-19T23:37:31.091Z,4.67
2018-09-19T23:39:59.263Z,4.50
2018-09-19T23:42:29.187Z,4.40
2018-09-19T23:44:57.375Z,4.40
2018-09-19T23:47:25.407Z,4.47
2018-09-19T23:49:53.688Z,4.70
2018-09-19T23:52:21.919Z,4.37
2018-09-19T23:54:50.148Z,4.50
2018-09-19T23:57:18.565Z,4.43
2018-09-19T23:59:46.882Z,4.43
